sensor_id;sensor_type;location;lat;lon;timestamp;P1;durP1;ratioP1;P2;durP2;ratioP2
36221;SDS011;22266;52.340;4.962;2023-06-14T00:02:21;8.67;;;7.67;;
36221;SDS011;22266;52.340;4.962;2023-06-14T00:04:48;7.33;;;7.33;;
36221;SDS011;22266;52.340;4.962;2023-06-14T00:07:17;7.00;;;7.00;;
36221;SDS011;22266;52.340;4.962;2023-06-14T00:09:45;6.00;;;6.00;;
36221;SDS011;22266;52.340;4.962;2023-06-14T00:12:11;6.75;;;6.50;;
36221;SDS011;22266;52.340;4.962;2023-06-14T00:14:38;6.00;;;4.50;;
36221;SDS011;22266;52.340;4.962;2023-06-14T00:17:05;4.50;;;4.50;;
36221;SDS011;22266;52.340;4.962;2023-06-14T00:19:33;5.00;;;5.00;;
36221;SDS011;22266;52.340;4.962;2023-06-14T00:22:02;6.25;;;5.75;;
36221;SDS011;22266;52.340;4.962;2023-06-14T00:24:29;3.00;;;3.00;;
36221;SDS011;22266;52.340;4.962;2023-06-14T00:26:56;6.00;;;4.25;;
36221;SDS011;22266;52.340;4.962;2023-06-14T00:29:23;3.00;;;3.00;;
36221;SDS011;22266;52.340;4.962;2023-06-14T00:31:49;3.75;;;3.75;;
36221;SDS011;22266;52.340;4.962;2023-06-14T00:34:17;4.75;;;4.75;;
36221;SDS011;22266;52.340;4.962;2023-06-14T00:36:44;3.50;;;3.50;;
36221;SDS011;22266;52.340;4.962;2023-06-14T00:39:13;4.25;;;4.25;;
36221;SDS011;22266;52.340;4.962;2023-06-14T00:41:39;5.00;;;4.00;;
36221;SDS011;22266;52.340;4.962;2023-06-14T00:44:06;3.00;;;3.00;;
36221;SDS011;22266;52.340;4.962;2023-06-14T00:46:33;2.75;;;2.75;;
36221;SDS011;22266;52.340;4.962;2023-06-14T00:49:00;3.00;;;3.00;;
36221;SDS011;22266;52.340;4.962;2023-06-14T00:51:27;5.50;;;4.25;;
36221;SDS011;22266;52.340;4.962;2023-06-14T00:53:54;7.33;;;6.33;;
36221;SDS011;22266;52.340;4.962;2023-06-14T00:56:21;6.50;;;5.75;;
36221;SDS011;22266;52.340;4.962;2023-06-14T00:58:50;3.67;;;3.67;;
36221;SDS011;22266;52.340;4.962;2023-06-14T01:01:17;5.00;;;5.00;;
36221;SDS011;22266;52.340;4.962;2023-06-14T01:03:43;7.67;;;7.67;;
36221;SDS011;22266;52.340;4.962;2023-06-14T01:06:15;5.00;;;5.00;;
36221;SDS011;22266;52.340;4.962;2023-06-14T01:11:50;7.75;;;4.25;;
36221;SDS011;22266;52.340;4.962;2023-06-14T01:14:25;7.00;;;6.00;;
36221;SDS011;22266;52.340;4.962;2023-06-14T01:16:54;7.00;;;6.67;;
36221;SDS011;22266;52.340;4.962;2023-06-14T01:19:21;7.33;;;6.00;;
36221;SDS011;22266;52.340;4.962;2023-06-14T01:21:51;8.33;;;4.67;;
36221;SDS011;22266;52.340;4.962;2023-06-14T01:24:19;4.25;;;4.25;;
36221;SDS011;22266;52.340;4.962;2023-06-14T01:26:53;3.75;;;3.75;;
36221;SDS011;22266;52.340;4.962;2023-06-14T01:29:26;8.00;;;6.00;;
36221;SDS011;22266;52.340;4.962;2023-06-14T01:32:01;6.67;;;4.67;;
36221;SDS011;22266;52.340;4.962;2023-06-14T01:34:29;7.00;;;5.00;;
36221;SDS011;22266;52.340;4.962;2023-06-14T01:36:56;4.00;;;4.00;;
36221;SDS011;22266;52.340;4.962;2023-06-14T01:39:24;4.00;;;4.00;;
36221;SDS011;22266;52.340;4.962;2023-06-14T01:41:51;3.50;;;3.50;;
36221;SDS011;22266;52.340;4.962;2023-06-14T01:44:19;3.67;;;3.00;;
36221;SDS011;22266;52.340;4.962;2023-06-14T01:46:47;6.67;;;6.67;;
36221;SDS011;22266;52.340;4.962;2023-06-14T01:49:14;5.00;;;3.25;;
36221;SDS011;22266;52.340;4.962;2023-06-14T01:51:40;5.25;;;4.00;;
36221;SDS011;22266;52.340;4.962;2023-06-14T01:54:07;4.00;;;4.00;;
36221;SDS011;22266;52.340;4.962;2023-06-14T01:56:34;5.00;;;5.00;;
36221;SDS011;22266;52.340;4.962;2023-06-14T01:59:00;6.33;;;6.33;;
36221;SDS011;22266;52.340;4.962;2023-06-14T02:01:27;6.00;;;4.50;;
36221;SDS011;22266;52.340;4.962;2023-06-14T02:03:54;6.00;;;4.67;;
36221;SDS011;22266;52.340;4.962;2023-06-14T02:06:20;5.67;;;5.33;;
36221;SDS011;22266;52.340;4.962;2023-06-14T02:08:47;5.33;;;5.33;;
36221;SDS011;22266;52.340;4.962;2023-06-14T02:11:14;4.25;;;4.25;;
36221;SDS011;22266;52.340;4.962;2023-06-14T02:13:40;5.50;;;3.00;;
36221;SDS011;22266;52.340;4.962;2023-06-14T02:16:07;5.00;;;4.50;;
36221;SDS011;22266;52.340;4.962;2023-06-14T02:18:33;4.00;;;4.00;;
36221;SDS011;22266;52.340;4.962;2023-06-14T02:21:00;3.00;;;3.00;;
36221;SDS011;22266;52.340;4.962;2023-06-14T02:23:28;6.00;;;3.67;;
36221;SDS011;22266;52.340;4.962;2023-06-14T02:25:58;7.00;;;4.75;;
36221;SDS011;22266;52.340;4.962;2023-06-14T02:28:25;6.00;;;4.00;;
36221;SDS011;22266;52.340;4.962;2023-06-14T02:30:52;3.00;;;3.00;;
36221;SDS011;22266;52.340;4.962;2023-06-14T02:33:22;3.75;;;3.00;;
36221;SDS011;22266;52.340;4.962;2023-06-14T02:35:48;2.25;;;2.25;;
36221;SDS011;22266;52.340;4.962;2023-06-14T02:38:15;3.00;;;3.00;;
36221;SDS011;22266;52.340;4.962;2023-06-14T02:40:41;4.25;;;4.25;;
36221;SDS011;22266;52.340;4.962;2023-06-14T02:43:08;3.00;;;2.75;;
36221;SDS011;22266;52.340;4.962;2023-06-14T02:45:35;7.00;;;4.00;;
36221;SDS011;22266;52.340;4.962;2023-06-14T02:48:01;6.33;;;6.00;;
36221;SDS011;22266;52.340;4.962;2023-06-14T02:50:28;3.00;;;3.00;;
36221;SDS011;22266;52.340;4.962;2023-06-14T02:52:56;2.25;;;2.25;;
36221;SDS011;22266;52.340;4.962;2023-06-14T02:55:23;3.00;;;3.00;;
36221;SDS011;22266;52.340;4.962;2023-06-14T02:57:49;2.00;;;2.00;;
36221;SDS011;22266;52.340;4.962;2023-06-14T03:00:16;2.67;;;2.67;;
36221;SDS011;22266;52.340;4.962;2023-06-14T03:02:46;3.33;;;3.33;;
36221;SDS011;22266;52.340;4.962;2023-06-14T03:05:13;6.33;;;3.00;;
36221;SDS011;22266;52.340;4.962;2023-06-14T03:07:40;4.33;;;3.33;;
36221;SDS011;22266;52.340;4.962;2023-06-14T03:10:11;3.00;;;3.00;;
36221;SDS011;22266;52.340;4.962;2023-06-14T03:12:41;3.50;;;3.50;;
36221;SDS011;22266;52.340;4.962;2023-06-14T03:15:09;4.00;;;4.00;;
36221;SDS011;22266;52.340;4.962;2023-06-14T03:17:40;5.67;;;5.67;;
36221;SDS011;22266;52.340;4.962;2023-06-14T03:20:07;3.67;;;3.00;;
36221;SDS011;22266;52.340;4.962;2023-06-14T03:22:35;2.00;;;2.00;;
36221;SDS011;22266;52.340;4.962;2023-06-14T03:25:01;5.67;;;4.33;;
36221;SDS011;22266;52.340;4.962;2023-06-14T03:27:33;3.25;;;3.25;;
36221;SDS011;22266;52.340;4.962;2023-06-14T03:30:00;2.67;;;2.67;;
36221;SDS011;22266;52.340;4.962;2023-06-14T03:32:28;2.67;;;2.67;;
36221;SDS011;22266;52.340;4.962;2023-06-14T03:34:55;6.00;;;6.00;;
36221;SDS011;22266;52.340;4.962;2023-06-14T03:37:23;8.00;;;5.33;;
36221;SDS011;22266;52.340;4.962;2023-06-14T03:39:49;3.00;;;3.00;;
36221;SDS011;22266;52.340;4.962;2023-06-14T03:42:20;4.00;;;4.00;;
36221;SDS011;22266;52.340;4.962;2023-06-14T03:44:47;4.67;;;3.00;;
36221;SDS011;22266;52.340;4.962;2023-06-14T03:47:15;5.33;;;5.33;;
36221;SDS011;22266;52.340;4.962;2023-06-14T03:49:42;4.67;;;4.33;;
36221;SDS011;22266;52.340;4.962;2023-06-14T03:52:09;3.00;;;3.00;;
36221;SDS011;22266;52.340;4.962;2023-06-14T03:54:37;7.00;;;4.00;;
36221;SDS011;22266;52.340;4.962;2023-06-14T03:57:08;6.00;;;3.00;;
36221;SDS011;22266;52.340;4.962;2023-06-14T03:59:34;6.00;;;6.00;;
36221;SDS011;22266;52.340;4.962;2023-06-14T04:02:01;4.00;;;4.00;;
36221;SDS011;22266;52.340;4.962;2023-06-14T04:04:28;4.00;;;4.00;;
36221;SDS011;22266;52.340;4.962;2023-06-14T04:06:57;1.33;;;0.67;;
36221;SDS011;22266;52.340;4.962;2023-06-14T04:09:25;4.00;;;4.00;;
36221;SDS011;22266;52.340;4.962;2023-06-14T04:11:51;4.33;;;4.00;;
36221;SDS011;22266;52.340;4.962;2023-06-14T04:14:19;0.00;;;0.00;;
36221;SDS011;22266;52.340;4.962;2023-06-14T04:16:46;4.00;;;4.00;;
36221;SDS011;22266;52.340;4.962;2023-06-14T04:19:16;3.33;;;3.00;;
36221;SDS011;22266;52.340;4.962;2023-06-14T04:21:42;2.33;;;2.33;;
36221;SDS011;22266;52.340;4.962;2023-06-14T04:24:09;7.00;;;6.00;;
36221;SDS011;22266;52.340;4.962;2023-06-14T04:26:45;3.00;;;3.00;;
36221;SDS011;22266;52.340;4.962;2023-06-14T04:29:15;6.00;;;6.00;;
36221;SDS011;22266;52.340;4.962;2023-06-14T04:31:46;4.00;;;4.00;;
36221;SDS011;22266;52.340;4.962;2023-06-14T04:34:13;4.00;;;2.33;;
36221;SDS011;22266;52.340;4.962;2023-06-14T04:36:49;3.00;;;3.00;;
36221;SDS011;22266;52.340;4.962;2023-06-14T04:39:16;4.00;;;4.00;;
36221;SDS011;22266;52.340;4.962;2023-06-14T04:41:45;3.00;;;3.00;;
36221;SDS011;22266;52.340;4.962;2023-06-14T04:44:13;4.67;;;3.00;;
36221;SDS011;22266;52.340;4.962;2023-06-14T04:46:44;5.33;;;4.67;;
36221;SDS011;22266;52.340;4.962;2023-06-14T04:49:18;6.00;;;4.00;;
36221;SDS011;22266;52.340;4.962;2023-06-14T04:51:45;3.67;;;3.33;;
36221;SDS011;22266;52.340;4.962;2023-06-14T04:54:13;8.00;;;5.67;;
36221;SDS011;22266;52.340;4.962;2023-06-14T04:56:40;4.00;;;3.33;;
36221;SDS011;22266;52.340;4.962;2023-06-14T04:59:10;7.33;;;6.33;;
36221;SDS011;22266;52.340;4.962;2023-06-14T05:01:41;3.00;;;3.00;;
36221;SDS011;22266;52.340;4.962;2023-06-14T05:04:07;3.00;;;3.00;;
36221;SDS011;22266;52.340;4.962;2023-06-14T05:06:34;3.00;;;3.00;;
36221;SDS011;22266;52.340;4.962;2023-06-14T05:09:02;5.33;;;3.33;;
36221;SDS011;22266;52.340;4.962;2023-06-14T05:11:29;3.67;;;3.33;;
36221;SDS011;22266;52.340;4.962;2023-06-14T05:13:55;5.33;;;3.67;;
36221;SDS011;22266;52.340;4.962;2023-06-14T05:16:24;4.00;;;4.00;;
36221;SDS011;22266;52.340;4.962;2023-06-14T05:18:51;4.00;;;4.00;;
36221;SDS011;22266;52.340;4.962;2023-06-14T05:21:18;5.33;;;5.33;;
36221;SDS011;22266;52.340;4.962;2023-06-14T05:23:45;4.00;;;4.00;;
36221;SDS011;22266;52.340;4.962;2023-06-14T05:26:11;7.33;;;6.33;;
36221;SDS011;22266;52.340;4.962;2023-06-14T05:28:38;7.33;;;6.00;;
36221;SDS011;22266;52.340;4.962;2023-06-14T05:31:04;6.00;;;4.33;;
36221;SDS011;22266;52.340;4.962;2023-06-14T05:33:31;4.67;;;4.67;;
36221;SDS011;22266;52.340;4.962;2023-06-14T05:35:57;5.00;;;5.00;;
36221;SDS011;22266;52.340;4.962;2023-06-14T05:38:24;3.33;;;3.00;;
36221;SDS011;22266;52.340;4.962;2023-06-14T05:40:51;6.67;;;5.00;;
36221;SDS011;22266;52.340;4.962;2023-06-14T05:43:18;6.33;;;6.33;;
36221;SDS011;22266;52.340;4.962;2023-06-14T05:45:44;6.00;;;6.00;;
36221;SDS011;22266;52.340;4.962;2023-06-14T05:48:11;4.00;;;4.00;;
36221;SDS011;22266;52.340;4.962;2023-06-14T05:50:37;5.00;;;4.00;;
36221;SDS011;22266;52.340;4.962;2023-06-14T05:53:04;5.50;;;5.50;;
36221;SDS011;22266;52.340;4.962;2023-06-14T05:55:30;3.50;;;3.50;;
36221;SDS011;22266;52.340;4.962;2023-06-14T05:57:57;5.00;;;5.00;;
36221;SDS011;22266;52.340;4.962;2023-06-14T06:00:23;3.00;;;3.00;;
36221;SDS011;22266;52.340;4.962;2023-06-14T06:02:50;4.33;;;4.33;;
36221;SDS011;22266;52.340;4.962;2023-06-14T06:05:17;7.00;;;7.00;;
36221;SDS011;22266;52.340;4.962;2023-06-14T06:07:44;4.00;;;4.00;;
36221;SDS011;22266;52.340;4.962;2023-06-14T06:10:11;5.50;;;5.50;;
36221;SDS011;22266;52.340;4.962;2023-06-14T06:12:38;7.33;;;7.00;;
36221;SDS011;22266;52.340;4.962;2023-06-14T06:15:04;8.00;;;8.00;;
36221;SDS011;22266;52.340;4.962;2023-06-14T06:17:32;5.33;;;5.33;;
36221;SDS011;22266;52.340;4.962;2023-06-14T06:20:18;4.00;;;4.00;;
36221;SDS011;22266;52.340;4.962;2023-06-14T06:22:45;7.00;;;6.00;;
36221;SDS011;22266;52.340;4.962;2023-06-14T06:25:11;5.00;;;5.00;;
36221;SDS011;22266;52.340;4.962;2023-06-14T06:27:38;5.33;;;5.33;;
36221;SDS011;22266;52.340;4.962;2023-06-14T06:30:06;5.00;;;5.00;;
36221;SDS011;22266;52.340;4.962;2023-06-14T06:32:33;6.33;;;6.33;;
36221;SDS011;22266;52.340;4.962;2023-06-14T06:35:00;5.33;;;5.33;;
36221;SDS011;22266;52.340;4.962;2023-06-14T06:37:26;6.00;;;4.00;;
36221;SDS011;22266;52.340;4.962;2023-06-14T06:39:53;6.00;;;6.00;;
36221;SDS011;22266;52.340;4.962;2023-06-14T06:42:19;6.00;;;5.33;;
36221;SDS011;22266;52.340;4.962;2023-06-14T06:44:49;4.00;;;4.00;;
36221;SDS011;22266;52.340;4.962;2023-06-14T06:47:15;7.00;;;7.00;;
36221;SDS011;22266;52.340;4.962;2023-06-14T06:49:42;4.33;;;4.33;;
36221;SDS011;22266;52.340;4.962;2023-06-14T06:52:09;10.00;;;8.67;;
36221;SDS011;22266;52.340;4.962;2023-06-14T06:54:35;4.00;;;4.00;;
36221;SDS011;22266;52.340;4.962;2023-06-14T06:57:02;6.25;;;6.00;;
36221;SDS011;22266;52.340;4.962;2023-06-14T06:59:28;3.25;;;3.25;;
36221;SDS011;22266;52.340;4.962;2023-06-14T07:01:55;7.00;;;6.00;;
36221;SDS011;22266;52.340;4.962;2023-06-14T07:04:22;6.00;;;6.00;;
36221;SDS011;22266;52.340;4.962;2023-06-14T07:06:48;4.67;;;4.67;;
36221;SDS011;22266;52.340;4.962;2023-06-14T07:09:15;9.67;;;8.67;;
36221;SDS011;22266;52.340;4.962;2023-06-14T07:11:42;10.67;;;7.00;;
36221;SDS011;22266;52.340;4.962;2023-06-14T07:14:10;8.00;;;8.00;;
36221;SDS011;22266;52.340;4.962;2023-06-14T07:16:36;9.67;;;7.67;;
36221;SDS011;22266;52.340;4.962;2023-06-14T07:19:03;5.00;;;5.00;;
36221;SDS011;22266;52.340;4.962;2023-06-14T07:21:30;7.33;;;7.33;;
36221;SDS011;22266;52.340;4.962;2023-06-14T07:23:56;8.00;;;8.00;;
36221;SDS011;22266;52.340;4.962;2023-06-14T07:26:23;9.00;;;9.00;;
36221;SDS011;22266;52.340;4.962;2023-06-14T07:28:49;7.33;;;7.00;;
36221;SDS011;22266;52.340;4.962;2023-06-14T07:31:16;9.33;;;9.00;;
36221;SDS011;22266;52.340;4.962;2023-06-14T07:33:45;8.33;;;8.33;;
36221;SDS011;22266;52.340;4.962;2023-06-14T07:36:12;8.67;;;6.67;;
36221;SDS011;22266;52.340;4.962;2023-06-14T07:38:38;6.00;;;5.00;;
36221;SDS011;22266;52.340;4.962;2023-06-14T07:41:07;6.00;;;5.25;;
36221;SDS011;22266;52.340;4.962;2023-06-14T07:43:33;7.25;;;6.00;;
36221;SDS011;22266;52.340;4.962;2023-06-14T07:46:00;7.67;;;7.67;;
36221;SDS011;22266;52.340;4.962;2023-06-14T07:48:33;8.00;;;7.00;;
36221;SDS011;22266;52.340;4.962;2023-06-14T07:51:00;11.67;;;10.67;;
36221;SDS011;22266;52.340;4.962;2023-06-14T07:53:27;9.67;;;8.33;;
36221;SDS011;22266;52.340;4.962;2023-06-14T07:55:54;8.00;;;7.00;;
36221;SDS011;22266;52.340;4.962;2023-06-14T07:58:21;7.25;;;7.25;;
36221;SDS011;22266;52.340;4.962;2023-06-14T08:00:47;6.25;;;5.75;;
36221;SDS011;22266;52.340;4.962;2023-06-14T08:03:14;6.00;;;6.00;;
36221;SDS011;22266;52.340;4.962;2023-06-14T08:05:41;9.50;;;7.25;;
36221;SDS011;22266;52.340;4.962;2023-06-14T08:08:07;6.50;;;5.50;;
36221;SDS011;22266;52.340;4.962;2023-06-14T08:10:34;8.00;;;7.00;;
36221;SDS011;22266;52.340;4.962;2023-06-14T08:13:00;7.75;;;7.75;;
36221;SDS011;22266;52.340;4.962;2023-06-14T08:15:27;8.00;;;8.00;;
36221;SDS011;22266;52.340;4.962;2023-06-14T08:17:53;6.00;;;6.00;;
36221;SDS011;22266;52.340;4.962;2023-06-14T08:20:20;8.00;;;8.00;;
36221;SDS011;22266;52.340;4.962;2023-06-14T08:22:47;7.00;;;6.75;;
36221;SDS011;22266;52.340;4.962;2023-06-14T08:25:14;8.50;;;8.50;;
36221;SDS011;22266;52.340;4.962;2023-06-14T08:27:41;7.50;;;7.00;;
36221;SDS011;22266;52.340;4.962;2023-06-14T08:30:08;7.75;;;7.75;;
36221;SDS011;22266;52.340;4.962;2023-06-14T08:32:35;6.00;;;6.00;;
36221;SDS011;22266;52.340;4.962;2023-06-14T08:35:01;9.00;;;8.50;;
36221;SDS011;22266;52.340;4.962;2023-06-14T08:37:31;6.00;;;6.00;;
36221;SDS011;22266;52.340;4.962;2023-06-14T08:39:59;6.00;;;6.00;;
36221;SDS011;22266;52.340;4.962;2023-06-14T08:42:26;9.00;;;7.75;;
36221;SDS011;22266;52.340;4.962;2023-06-14T08:44:57;7.00;;;6.00;;
36221;SDS011;22266;52.340;4.962;2023-06-14T08:47:24;6.00;;;6.00;;
36221;SDS011;22266;52.340;4.962;2023-06-14T08:49:53;5.75;;;5.25;;
36221;SDS011;22266;52.340;4.962;2023-06-14T08:52:23;4.67;;;4.00;;
36221;SDS011;22266;52.340;4.962;2023-06-14T08:54:56;6.00;;;6.00;;
36221;SDS011;22266;52.340;4.962;2023-06-14T08:57:23;6.50;;;5.00;;
36221;SDS011;22266;52.340;4.962;2023-06-14T08:59:51;8.75;;;6.25;;
36221;SDS011;22266;52.340;4.962;2023-06-14T09:02:19;6.75;;;6.75;;
36221;SDS011;22266;52.340;4.962;2023-06-14T09:04:48;6.25;;;6.25;;
36221;SDS011;22266;52.340;4.962;2023-06-14T09:07:17;4.25;;;4.25;;
36221;SDS011;22266;52.340;4.962;2023-06-14T09:09:44;3.25;;;3.25;;
36221;SDS011;22266;52.340;4.962;2023-06-14T09:12:31;8.00;;;4.00;;
36221;SDS011;22266;52.340;4.962;2023-06-14T09:14:57;8.50;;;6.00;;
36221;SDS011;22266;52.340;4.962;2023-06-14T09:17:24;3.50;;;3.50;;
36221;SDS011;22266;52.340;4.962;2023-06-14T09:19:50;5.75;;;4.25;;
36221;SDS011;22266;52.340;4.962;2023-06-14T09:22:17;4.00;;;4.00;;
36221;SDS011;22266;52.340;4.962;2023-06-14T09:24:43;5.25;;;4.25;;
36221;SDS011;22266;52.340;4.962;2023-06-14T09:27:14;6.25;;;6.25;;
36221;SDS011;22266;52.340;4.962;2023-06-14T09:29:42;4.00;;;4.00;;
36221;SDS011;22266;52.340;4.962;2023-06-14T09:32:08;5.75;;;5.75;;
36221;SDS011;22266;52.340;4.962;2023-06-14T09:34:36;4.00;;;4.00;;
36221;SDS011;22266;52.340;4.962;2023-06-14T09:37:03;4.00;;;4.00;;
36221;SDS011;22266;52.340;4.962;2023-06-14T09:39:30;3.00;;;3.00;;
36221;SDS011;22266;52.340;4.962;2023-06-14T09:41:57;3.75;;;3.75;;
36221;SDS011;22266;52.340;4.962;2023-06-14T09:44:23;6.25;;;6.25;;
36221;SDS011;22266;52.340;4.962;2023-06-14T09:46:55;5.00;;;5.00;;
36221;SDS011;22266;52.340;4.962;2023-06-14T09:49:22;4.75;;;3.75;;
36221;SDS011;22266;52.340;4.962;2023-06-14T09:51:50;5.00;;;5.00;;
36221;SDS011;22266;52.340;4.962;2023-06-14T09:54:20;3.00;;;3.00;;
36221;SDS011;22266;52.340;4.962;2023-06-14T09:56:49;7.50;;;4.00;;
36221;SDS011;22266;52.340;4.962;2023-06-14T09:59:21;6.00;;;6.00;;
36221;SDS011;22266;52.340;4.962;2023-06-14T10:01:55;4.00;;;3.75;;
36221;SDS011;22266;52.340;4.962;2023-06-14T10:04:25;3.50;;;3.50;;
36221;SDS011;22266;52.340;4.962;2023-06-14T10:06:56;3.00;;;3.00;;
36221;SDS011;22266;52.340;4.962;2023-06-14T10:09:24;3.00;;;3.00;;
36221;SDS011;22266;52.340;4.962;2023-06-14T10:11:51;4.00;;;4.00;;
36221;SDS011;22266;52.340;4.962;2023-06-14T10:14:18;3.75;;;3.00;;
36221;SDS011;22266;52.340;4.962;2023-06-14T10:22:09;4.00;;;4.00;;
36221;SDS011;22266;52.340;4.962;2023-06-14T10:24:44;3.00;;;3.00;;
36221;SDS011;22266;52.340;4.962;2023-06-14T10:27:12;3.50;;;3.50;;
36221;SDS011;22266;52.340;4.962;2023-06-14T10:32:25;4.50;;;3.25;;
36221;SDS011;22266;52.340;4.962;2023-06-14T10:34:56;3.25;;;3.25;;
36221;SDS011;22266;52.340;4.962;2023-06-14T10:37:25;3.00;;;3.00;;
36221;SDS011;22266;52.340;4.962;2023-06-14T10:39:52;2.75;;;2.75;;
36221;SDS011;22266;52.340;4.962;2023-06-14T10:42:19;3.50;;;3.50;;
36221;SDS011;22266;52.340;4.962;2023-06-14T10:44:52;3.25;;;3.25;;
36221;SDS011;22266;52.340;4.962;2023-06-14T10:47:26;3.25;;;3.25;;
36221;SDS011;22266;52.340;4.962;2023-06-14T10:52:28;6.50;;;5.00;;
36221;SDS011;22266;52.340;4.962;2023-06-14T10:54:59;3.00;;;3.00;;
36221;SDS011;22266;52.340;4.962;2023-06-14T11:00:19;4.00;;;3.25;;
36221;SDS011;22266;52.340;4.962;2023-06-14T11:03:36;2.00;;;2.00;;
36221;SDS011;22266;52.340;4.962;2023-06-14T11:05:52;3.25;;;2.75;;
36221;SDS011;22266;52.340;4.962;2023-06-14T11:08:40;3.50;;;3.00;;
36221;SDS011;22266;52.340;4.962;2023-06-14T11:11:13;2.00;;;2.00;;
36221;SDS011;22266;52.340;4.962;2023-06-14T11:13:45;4.25;;;3.50;;
36221;SDS011;22266;52.340;4.962;2023-06-14T11:16:16;4.00;;;4.00;;
36221;SDS011;22266;52.340;4.962;2023-06-14T11:18:45;4.00;;;4.00;;
36221;SDS011;22266;52.340;4.962;2023-06-14T11:21:15;5.00;;;5.00;;
36221;SDS011;22266;52.340;4.962;2023-06-14T11:23:48;4.50;;;4.00;;
36221;SDS011;22266;52.340;4.962;2023-06-14T11:26:15;8.00;;;5.50;;
36221;SDS011;22266;52.340;4.962;2023-06-14T11:28:42;4.25;;;4.25;;
36221;SDS011;22266;52.340;4.962;2023-06-14T11:31:09;4.50;;;4.50;;
36221;SDS011;22266;52.340;4.962;2023-06-14T11:33:35;4.00;;;4.00;;
36221;SDS011;22266;52.340;4.962;2023-06-14T11:36:02;4.00;;;4.00;;
36221;SDS011;22266;52.340;4.962;2023-06-14T11:38:34;3.50;;;3.50;;
36221;SDS011;22266;52.340;4.962;2023-06-14T11:41:02;4.00;;;3.50;;
36221;SDS011;22266;52.340;4.962;2023-06-14T11:43:29;3.00;;;2.25;;
36221;SDS011;22266;52.340;4.962;2023-06-14T11:45:58;3.00;;;3.00;;
36221;SDS011;22266;52.340;4.962;2023-06-14T11:48:37;2.00;;;2.00;;
36221;SDS011;22266;52.340;4.962;2023-06-14T11:51:08;3.50;;;2.00;;
36221;SDS011;22266;52.340;4.962;2023-06-14T11:53:34;4.00;;;3.00;;
36221;SDS011;22266;52.340;4.962;2023-06-14T11:56:01;4.00;;;3.25;;
36221;SDS011;22266;52.340;4.962;2023-06-14T11:58:29;3.00;;;3.00;;
36221;SDS011;22266;52.340;4.962;2023-06-14T12:00:56;2.00;;;2.00;;
36221;SDS011;22266;52.340;4.962;2023-06-14T12:03:25;4.00;;;4.00;;
36221;SDS011;22266;52.340;4.962;2023-06-14T12:06:07;6.00;;;3.00;;
36221;SDS011;22266;52.340;4.962;2023-06-14T12:08:35;3.00;;;3.00;;
36221;SDS011;22266;52.340;4.962;2023-06-14T12:11:07;4.25;;;4.25;;
36221;SDS011;22266;52.340;4.962;2023-06-14T12:13:38;4.00;;;4.00;;
36221;SDS011;22266;52.340;4.962;2023-06-14T12:16:10;3.75;;;3.00;;
36221;SDS011;22266;52.340;4.962;2023-06-14T12:18:38;2.00;;;2.00;;
36221;SDS011;22266;52.340;4.962;2023-06-14T12:21:06;1.25;;;1.25;;
36221;SDS011;22266;52.340;4.962;2023-06-14T12:23:43;3.50;;;3.50;;
36221;SDS011;22266;52.340;4.962;2023-06-14T12:26:18;4.00;;;4.00;;
36221;SDS011;22266;52.340;4.962;2023-06-14T12:28:46;3.00;;;3.00;;
36221;SDS011;22266;52.340;4.962;2023-06-14T12:31:16;3.25;;;3.25;;
36221;SDS011;22266;52.340;4.962;2023-06-14T12:33:43;3.50;;;3.00;;
36221;SDS011;22266;52.340;4.962;2023-06-14T12:36:12;3.00;;;3.00;;
36221;SDS011;22266;52.340;4.962;2023-06-14T12:38:38;3.25;;;3.00;;
36221;SDS011;22266;52.340;4.962;2023-06-14T12:41:05;2.00;;;2.00;;
36221;SDS011;22266;52.340;4.962;2023-06-14T12:43:32;3.00;;;3.00;;
36221;SDS011;22266;52.340;4.962;2023-06-14T12:45:58;4.00;;;3.25;;
36221;SDS011;22266;52.340;4.962;2023-06-14T12:48:26;5.00;;;5.00;;
36221;SDS011;22266;52.340;4.962;2023-06-14T12:50:54;6.00;;;4.00;;
36221;SDS011;22266;52.340;4.962;2023-06-14T12:53:21;3.25;;;3.25;;
36221;SDS011;22266;52.340;4.962;2023-06-14T12:55:47;4.00;;;4.00;;
36221;SDS011;22266;52.340;4.962;2023-06-14T12:58:14;1.75;;;1.75;;
36221;SDS011;22266;52.340;4.962;2023-06-14T13:00:40;3.00;;;2.75;;
36221;SDS011;22266;52.340;4.962;2023-06-14T13:03:07;5.50;;;4.00;;
36221;SDS011;22266;52.340;4.962;2023-06-14T13:05:34;2.00;;;2.00;;
36221;SDS011;22266;52.340;4.962;2023-06-14T13:08:00;5.00;;;3.50;;
36221;SDS011;22266;52.340;4.962;2023-06-14T13:10:27;2.25;;;2.25;;
36221;SDS011;22266;52.340;4.962;2023-06-14T13:12:54;5.25;;;3.50;;
36221;SDS011;22266;52.340;4.962;2023-06-14T13:15:20;2.00;;;2.00;;
36221;SDS011;22266;52.340;4.962;2023-06-14T13:17:47;2.25;;;2.00;;
36221;SDS011;22266;52.340;4.962;2023-06-14T13:20:15;2.50;;;2.00;;
36221;SDS011;22266;52.340;4.962;2023-06-14T13:22:45;3.50;;;3.25;;
36221;SDS011;22266;52.340;4.962;2023-06-14T13:25:12;3.00;;;3.00;;
36221;SDS011;22266;52.340;4.962;2023-06-14T13:27:39;2.00;;;2.00;;
36221;SDS011;22266;52.340;4.962;2023-06-14T13:30:05;2.00;;;2.00;;
36221;SDS011;22266;52.340;4.962;2023-06-14T13:32:32;3.00;;;3.00;;
36221;SDS011;22266;52.340;4.962;2023-06-14T13:34:59;3.50;;;3.50;;
36221;SDS011;22266;52.340;4.962;2023-06-14T13:37:26;2.25;;;2.25;;
36221;SDS011;22266;52.340;4.962;2023-06-14T13:39:52;2.75;;;2.75;;
36221;SDS011;22266;52.340;4.962;2023-06-14T13:42:19;5.50;;;3.00;;
36221;SDS011;22266;52.340;4.962;2023-06-14T13:44:45;2.00;;;2.00;;
36221;SDS011;22266;52.340;4.962;2023-06-14T13:47:12;4.67;;;3.00;;
36221;SDS011;22266;52.340;4.962;2023-06-14T13:49:38;2.75;;;2.75;;
36221;SDS011;22266;52.340;4.962;2023-06-14T13:52:05;2.75;;;2.75;;
36221;SDS011;22266;52.340;4.962;2023-06-14T13:54:32;3.50;;;3.50;;
36221;SDS011;22266;52.340;4.962;2023-06-14T13:56:59;2.50;;;2.50;;
36221;SDS011;22266;52.340;4.962;2023-06-14T13:59:25;3.00;;;3.00;;
36221;SDS011;22266;52.340;4.962;2023-06-14T14:01:52;4.00;;;3.00;;
36221;SDS011;22266;52.340;4.962;2023-06-14T14:04:19;3.00;;;3.00;;
36221;SDS011;22266;52.340;4.962;2023-06-14T14:06:46;2.75;;;2.75;;
36221;SDS011;22266;52.340;4.962;2023-06-14T14:09:14;4.25;;;4.25;;
36221;SDS011;22266;52.340;4.962;2023-06-14T14:11:41;3.00;;;3.00;;
36221;SDS011;22266;52.340;4.962;2023-06-14T14:14:08;3.25;;;3.25;;
36221;SDS011;22266;52.340;4.962;2023-06-14T14:16:36;3.00;;;3.00;;
36221;SDS011;22266;52.340;4.962;2023-06-14T14:19:03;4.75;;;4.00;;
36221;SDS011;22266;52.340;4.962;2023-06-14T14:21:30;3.50;;;3.50;;
36221;SDS011;22266;52.340;4.962;2023-06-14T14:23:57;3.75;;;3.75;;
36221;SDS011;22266;52.340;4.962;2023-06-14T14:26:23;3.75;;;2.25;;
36221;SDS011;22266;52.340;4.962;2023-06-14T14:28:51;4.00;;;4.00;;
36221;SDS011;22266;52.340;4.962;2023-06-14T14:31:18;4.25;;;4.25;;
36221;SDS011;22266;52.340;4.962;2023-06-14T14:33:45;3.50;;;2.75;;
36221;SDS011;22266;52.340;4.962;2023-06-14T14:36:11;3.00;;;3.00;;
36221;SDS011;22266;52.340;4.962;2023-06-14T14:38:38;3.25;;;3.00;;
36221;SDS011;22266;52.340;4.962;2023-06-14T14:41:04;3.00;;;2.75;;
36221;SDS011;22266;52.340;4.962;2023-06-14T14:43:31;6.50;;;3.00;;
36221;SDS011;22266;52.340;4.962;2023-06-14T14:45:58;2.25;;;2.25;;
36221;SDS011;22266;52.340;4.962;2023-06-14T14:48:25;3.00;;;3.00;;
36221;SDS011;22266;52.340;4.962;2023-06-14T14:50:51;3.00;;;3.00;;
36221;SDS011;22266;52.340;4.962;2023-06-14T14:53:18;4.00;;;3.50;;
36221;SDS011;22266;52.340;4.962;2023-06-14T14:55:44;2.50;;;2.25;;
36221;SDS011;22266;52.340;4.962;2023-06-14T14:58:12;4.00;;;4.00;;
36221;SDS011;22266;52.340;4.962;2023-06-14T15:00:40;3.00;;;3.00;;
36221;SDS011;22266;52.340;4.962;2023-06-14T15:03:06;5.00;;;4.00;;
36221;SDS011;22266;52.340;4.962;2023-06-14T15:05:33;3.00;;;3.00;;
36221;SDS011;22266;52.340;4.962;2023-06-14T15:08:00;0.75;;;0.25;;
36221;SDS011;22266;52.340;4.962;2023-06-14T15:10:26;4.00;;;4.00;;